sensor_id;sensor_type;location;lat;lon;timestamp;P1;durP1;ratioP1;P2;durP2;ratioP2
9848;SDS011;4963;51.444;6.528;2023-07-09T00:00:10;7.80;;;5.80;;
9848;SDS011;4963;51.444;6.528;2023-07-09T00:02:40;6.53;;;5.18;;
9848;SDS011;4963;51.444;6.528;2023-07-09T00:05:09;9.80;;;5.65;;
9848;SDS011;4963;51.444;6.528;2023-07-09T00:07:39;7.07;;;5.88;;
9848;SDS011;4963;51.444;6.528;2023-07-09T00:10:12;5.90;;;5.22;;
9848;SDS011;4963;51.444;6.528;2023-07-09T00:12:41;7.68;;;5.45;;
9848;SDS011;4963;51.444;6.528;2023-07-09T00:15:09;6.97;;;5.63;;
9848;SDS011;4963;51.444;6.528;2023-07-09T00:17:37;5.93;;;5.32;;
9848;SDS011;4963;51.444;6.528;2023-07-09T00:20:05;10.32;;;6.18;;
9848;SDS011;4963;51.444;6.528;2023-07-09T00:22:39;8.57;;;6.30;;
9848;SDS011;4963;51.444;6.528;2023-07-09T00:25:09;5.85;;;5.07;;
9848;SDS011;4963;51.444;6.528;2023-07-09T00:27:38;7.57;;;5.65;;
9848;SDS011;4963;51.444;6.528;2023-07-09T00:30:11;10.55;;;5.75;;
9848;SDS011;4963;51.444;6.528;2023-07-09T00:32:42;8.20;;;5.85;;
9848;SDS011;4963;51.444;6.528;2023-07-09T00:35:09;6.20;;;5.43;;
9848;SDS011;4963;51.444;6.528;2023-07-09T00:37:37;7.03;;;5.60;;
9848;SDS011;4963;51.444;6.528;2023-07-09T00:40:08;6.57;;;5.45;;
9848;SDS011;4963;51.444;6.528;2023-07-09T00:42:42;9.68;;;5.80;;
9848;SDS011;4963;51.444;6.528;2023-07-09T00:45:15;8.40;;;5.53;;
9848;SDS011;4963;51.444;6.528;2023-07-09T00:47:46;7.25;;;6.03;;
9848;SDS011;4963;51.444;6.528;2023-07-09T00:50:20;7.82;;;5.85;;
9848;SDS011;4963;51.444;6.528;2023-07-09T00:52:56;8.45;;;5.75;;
9848;SDS011;4963;51.444;6.528;2023-07-09T00:55:30;7.20;;;5.82;;
9848;SDS011;4963;51.444;6.528;2023-07-09T00:58:03;8.75;;;5.68;;
9848;SDS011;4963;51.444;6.528;2023-07-09T01:00:34;9.15;;;5.85;;
9848;SDS011;4963;51.444;6.528;2023-07-09T01:03:11;7.13;;;5.60;;
9848;SDS011;4963;51.444;6.528;2023-07-09T01:05:45;10.57;;;6.22;;
9848;SDS011;4963;51.444;6.528;2023-07-09T01:08:16;7.45;;;6.28;;
9848;SDS011;4963;51.444;6.528;2023-07-09T01:10:45;10.02;;;6.10;;
9848;SDS011;4963;51.444;6.528;2023-07-09T01:13:12;7.40;;;5.18;;
9848;SDS011;4963;51.444;6.528;2023-07-09T01:15:40;7.13;;;5.85;;
9848;SDS011;4963;51.444;6.528;2023-07-09T01:18:08;8.48;;;5.82;;
9848;SDS011;4963;51.444;6.528;2023-07-09T01:20:35;6.75;;;6.00;;
9848;SDS011;4963;51.444;6.528;2023-07-09T01:23:05;5.97;;;5.13;;
9848;SDS011;4963;51.444;6.528;2023-07-09T01:25:32;7.18;;;5.70;;
9848;SDS011;4963;51.444;6.528;2023-07-09T01:28:00;7.85;;;5.55;;
9848;SDS011;4963;51.444;6.528;2023-07-09T01:30:29;6.57;;;5.50;;
9848;SDS011;4963;51.444;6.528;2023-07-09T01:32:59;7.05;;;5.32;;
9848;SDS011;4963;51.444;6.528;2023-07-09T01:35:28;6.97;;;5.57;;
9848;SDS011;4963;51.444;6.528;2023-07-09T01:37:57;11.45;;;6.38;;
9848;SDS011;4963;51.444;6.528;2023-07-09T01:40:26;12.43;;;6.45;;
9848;SDS011;4963;51.444;6.528;2023-07-09T01:42:54;8.32;;;5.90;;
9848;SDS011;4963;51.444;6.528;2023-07-09T01:45:23;7.60;;;5.95;;
9848;SDS011;4963;51.444;6.528;2023-07-09T01:47:50;9.77;;;6.43;;
9848;SDS011;4963;51.444;6.528;2023-07-09T01:50:19;9.35;;;6.30;;
9848;SDS011;4963;51.444;6.528;2023-07-09T01:52:46;9.15;;;6.75;;
9848;SDS011;4963;51.444;6.528;2023-07-09T01:55:14;9.05;;;6.05;;
9848;SDS011;4963;51.444;6.528;2023-07-09T01:57:44;8.40;;;6.00;;
9848;SDS011;4963;51.444;6.528;2023-07-09T02:00:12;8.93;;;6.05;;
9848;SDS011;4963;51.444;6.528;2023-07-09T02:02:40;7.53;;;6.47;;
9848;SDS011;4963;51.444;6.528;2023-07-09T02:05:09;8.52;;;6.32;;
9848;SDS011;4963;51.444;6.528;2023-07-09T02:07:37;9.80;;;7.20;;
9848;SDS011;4963;51.444;6.528;2023-07-09T02:10:04;10.20;;;6.20;;
9848;SDS011;4963;51.444;6.528;2023-07-09T02:12:32;9.15;;;6.68;;
9848;SDS011;4963;51.444;6.528;2023-07-09T02:15:00;7.78;;;6.13;;
9848;SDS011;4963;51.444;6.528;2023-07-09T02:17:27;8.00;;;6.38;;
9848;SDS011;4963;51.444;6.528;2023-07-09T02:19:54;13.60;;;7.03;;
9848;SDS011;4963;51.444;6.528;2023-07-09T02:22:21;8.48;;;6.82;;
9848;SDS011;4963;51.444;6.528;2023-07-09T02:24:48;6.93;;;5.88;;
9848;SDS011;4963;51.444;6.528;2023-07-09T02:27:17;9.25;;;6.75;;
9848;SDS011;4963;51.444;6.528;2023-07-09T02:29:44;9.38;;;6.93;;
9848;SDS011;4963;51.444;6.528;2023-07-09T02:32:13;11.27;;;6.65;;
9848;SDS011;4963;51.444;6.528;2023-07-09T02:34:44;8.50;;;5.80;;
9848;SDS011;4963;51.444;6.528;2023-07-09T02:37:14;7.55;;;6.38;;
9848;SDS011;4963;51.444;6.528;2023-07-09T02:39:41;8.52;;;6.47;;
9848;SDS011;4963;51.444;6.528;2023-07-09T02:42:08;8.88;;;6.70;;
9848;SDS011;4963;51.444;6.528;2023-07-09T02:44:36;8.55;;;5.90;;
9848;SDS011;4963;51.444;6.528;2023-07-09T02:47:03;7.95;;;6.47;;
9848;SDS011;4963;51.444;6.528;2023-07-09T02:49:31;10.27;;;6.13;;
9848;SDS011;4963;51.444;6.528;2023-07-09T02:51:58;10.75;;;6.78;;
9848;SDS011;4963;51.444;6.528;2023-07-09T02:54:25;9.10;;;6.28;;
9848;SDS011;4963;51.444;6.528;2023-07-09T02:56:52;7.78;;;6.20;;
9848;SDS011;4963;51.444;6.528;2023-07-09T02:59:19;8.27;;;6.50;;
9848;SDS011;4963;51.444;6.528;2023-07-09T03:01:46;8.85;;;6.63;;
9848;SDS011;4963;51.444;6.528;2023-07-09T03:04:13;9.48;;;6.20;;
9848;SDS011;4963;51.444;6.528;2023-07-09T03:06:41;6.78;;;6.05;;
9848;SDS011;4963;51.444;6.528;2023-07-09T03:09:10;7.72;;;6.57;;
9848;SDS011;4963;51.444;6.528;2023-07-09T03:11:36;8.48;;;6.72;;
9848;SDS011;4963;51.444;6.528;2023-07-09T03:14:03;9.63;;;7.13;;
9848;SDS011;4963;51.444;6.528;2023-07-09T03:16:32;7.55;;;6.18;;
9848;SDS011;4963;51.444;6.528;2023-07-09T03:19:00;8.85;;;6.82;;
9848;SDS011;4963;51.444;6.528;2023-07-09T03:21:28;8.27;;;6.13;;
9848;SDS011;4963;51.444;6.528;2023-07-09T03:23:56;7.85;;;5.97;;
9848;SDS011;4963;51.444;6.528;2023-07-09T03:26:23;10.00;;;6.22;;
9848;SDS011;4963;51.444;6.528;2023-07-09T03:28:51;8.10;;;6.18;;
9848;SDS011;4963;51.444;6.528;2023-07-09T03:31:18;8.20;;;6.82;;
9848;SDS011;4963;51.444;6.528;2023-07-09T03:33:46;7.85;;;6.43;;
9848;SDS011;4963;51.444;6.528;2023-07-09T03:36:13;8.18;;;6.85;;
9848;SDS011;4963;51.444;6.528;2023-07-09T03:38:40;8.65;;;6.18;;
9848;SDS011;4963;51.444;6.528;2023-07-09T03:41:08;8.00;;;5.88;;
9848;SDS011;4963;51.444;6.528;2023-07-09T03:43:35;9.27;;;6.82;;
9848;SDS011;4963;51.444;6.528;2023-07-09T03:46:02;10.43;;;6.95;;
9848;SDS011;4963;51.444;6.528;2023-07-09T03:48:29;8.45;;;6.60;;
9848;SDS011;4963;51.444;6.528;2023-07-09T03:50:56;8.80;;;6.68;;
9848;SDS011;4963;51.444;6.528;2023-07-09T03:53:23;9.30;;;6.45;;
9848;SDS011;4963;51.444;6.528;2023-07-09T03:55:53;8.90;;;6.40;;
9848;SDS011;4963;51.444;6.528;2023-07-09T03:58:23;8.45;;;7.07;;
9848;SDS011;4963;51.444;6.528;2023-07-09T04:00:50;6.75;;;5.95;;
9848;SDS011;4963;51.444;6.528;2023-07-09T04:03:17;12.02;;;6.80;;
9848;SDS011;4963;51.444;6.528;2023-07-09T04:05:44;11.05;;;7.32;;
9848;SDS011;4963;51.444;6.528;2023-07-09T04:08:11;8.32;;;6.65;;
9848;SDS011;4963;51.444;6.528;2023-07-09T04:10:38;8.60;;;6.65;;
9848;SDS011;4963;51.444;6.528;2023-07-09T04:13:05;9.35;;;7.10;;
9848;SDS011;4963;51.444;6.528;2023-07-09T04:15:33;8.73;;;7.28;;
9848;SDS011;4963;51.444;6.528;2023-07-09T04:18:00;9.32;;;6.82;;
9848;SDS011;4963;51.444;6.528;2023-07-09T04:20:27;8.70;;;7.20;;
9848;SDS011;4963;51.444;6.528;2023-07-09T04:22:54;9.65;;;7.05;;
9848;SDS011;4963;51.444;6.528;2023-07-09T04:25:21;8.90;;;7.70;;
9848;SDS011;4963;51.444;6.528;2023-07-09T04:27:48;9.73;;;6.72;;
9848;SDS011;4963;51.444;6.528;2023-07-09T04:30:15;9.80;;;7.55;;
9848;SDS011;4963;51.444;6.528;2023-07-09T04:32:44;11.07;;;7.10;;
9848;SDS011;4963;51.444;6.528;2023-07-09T04:35:11;9.23;;;7.18;;
9848;SDS011;4963;51.444;6.528;2023-07-09T04:37:39;10.55;;;7.25;;
9848;SDS011;4963;51.444;6.528;2023-07-09T04:40:08;10.65;;;6.82;;
9848;SDS011;4963;51.444;6.528;2023-07-09T04:42:37;11.40;;;6.65;;
9848;SDS011;4963;51.444;6.528;2023-07-09T04:45:05;11.48;;;7.97;;
9848;SDS011;4963;51.444;6.528;2023-07-09T04:47:33;11.90;;;7.97;;
9848;SDS011;4963;51.444;6.528;2023-07-09T04:50:02;8.88;;;7.18;;
9848;SDS011;4963;51.444;6.528;2023-07-09T04:52:29;11.73;;;7.28;;
9848;SDS011;4963;51.444;6.528;2023-07-09T04:54:57;11.25;;;7.78;;
9848;SDS011;4963;51.444;6.528;2023-07-09T04:57:24;11.02;;;7.28;;
9848;SDS011;4963;51.444;6.528;2023-07-09T04:59:51;12.60;;;7.97;;
9848;SDS011;4963;51.444;6.528;2023-07-09T05:02:18;9.15;;;6.68;;
9848;SDS011;4963;51.444;6.528;2023-07-09T05:04:45;10.52;;;7.43;;
9848;SDS011;4963;51.444;6.528;2023-07-09T05:07:13;10.07;;;7.53;;
9848;SDS011;4963;51.444;6.528;2023-07-09T05:09:40;8.32;;;7.40;;
9848;SDS011;4963;51.444;6.528;2023-07-09T05:12:07;8.80;;;7.53;;
9848;SDS011;4963;51.444;6.528;2023-07-09T05:14:35;9.88;;;7.13;;
9848;SDS011;4963;51.444;6.528;2023-07-09T05:17:02;9.43;;;7.53;;
9848;SDS011;4963;51.444;6.528;2023-07-09T05:19:30;10.00;;;6.18;;
9848;SDS011;4963;51.444;6.528;2023-07-09T05:21:56;10.77;;;6.95;;
9848;SDS011;4963;51.444;6.528;2023-07-09T05:24:25;12.70;;;7.88;;
9848;SDS011;4963;51.444;6.528;2023-07-09T05:26:52;10.20;;;7.22;;
9848;SDS011;4963;51.444;6.528;2023-07-09T05:29:18;10.20;;;7.20;;
9848;SDS011;4963;51.444;6.528;2023-07-09T05:31:45;9.02;;;6.07;;
9848;SDS011;4963;51.444;6.528;2023-07-09T05:34:12;10.57;;;6.35;;
9848;SDS011;4963;51.444;6.528;2023-07-09T05:36:39;8.30;;;6.93;;
9848;SDS011;4963;51.444;6.528;2023-07-09T05:39:06;9.50;;;6.93;;
9848;SDS011;4963;51.444;6.528;2023-07-09T05:41:34;9.38;;;7.10;;
9848;SDS011;4963;51.444;6.528;2023-07-09T05:44:01;10.52;;;7.35;;
9848;SDS011;4963;51.444;6.528;2023-07-09T05:46:28;9.80;;;6.40;;
9848;SDS011;4963;51.444;6.528;2023-07-09T05:49:01;9.27;;;6.50;;
9848;SDS011;4963;51.444;6.528;2023-07-09T05:51:30;8.90;;;6.38;;
9848;SDS011;4963;51.444;6.528;2023-07-09T05:53:56;8.57;;;6.22;;
9848;SDS011;4963;51.444;6.528;2023-07-09T05:56:23;8.93;;;6.53;;
9848;SDS011;4963;51.444;6.528;2023-07-09T05:58:52;8.55;;;6.50;;
9848;SDS011;4963;51.444;6.528;2023-07-09T06:01:18;9.95;;;6.53;;
9848;SDS011;4963;51.444;6.528;2023-07-09T06:03:46;13.70;;;6.60;;
9848;SDS011;4963;51.444;6.528;2023-07-09T06:06:14;8.70;;;6.07;;
9848;SDS011;4963;51.444;6.528;2023-07-09T06:08:41;8.10;;;5.65;;
9848;SDS011;4963;51.444;6.528;2023-07-09T06:11:08;9.20;;;6.13;;
9848;SDS011;4963;51.444;6.528;2023-07-09T06:13:35;7.60;;;6.05;;
9848;SDS011;4963;51.444;6.528;2023-07-09T06:16:04;7.28;;;6.22;;
9848;SDS011;4963;51.444;6.528;2023-07-09T06:18:37;7.95;;;6.43;;
9848;SDS011;4963;51.444;6.528;2023-07-09T06:21:03;10.27;;;6.85;;
9848;SDS011;4963;51.444;6.528;2023-07-09T06:23:32;8.43;;;6.05;;
9848;SDS011;4963;51.444;6.528;2023-07-09T06:25:59;7.93;;;6.30;;
9848;SDS011;4963;51.444;6.528;2023-07-09T06:28:26;9.48;;;6.57;;
9848;SDS011;4963;51.444;6.528;2023-07-09T06:30:55;7.45;;;6.13;;
9848;SDS011;4963;51.444;6.528;2023-07-09T06:33:24;10.35;;;6.20;;
9848;SDS011;4963;51.444;6.528;2023-07-09T06:35:53;10.75;;;6.63;;
9848;SDS011;4963;51.444;6.528;2023-07-09T06:38:21;8.05;;;6.53;;
9848;SDS011;4963;51.444;6.528;2023-07-09T06:40:48;10.43;;;6.38;;
9848;SDS011;4963;51.444;6.528;2023-07-09T06:43:16;7.97;;;6.22;;
9848;SDS011;4963;51.444;6.528;2023-07-09T06:45:53;9.23;;;6.30;;
9848;SDS011;4963;51.444;6.528;2023-07-09T06:48:21;8.68;;;6.32;;
9848;SDS011;4963;51.444;6.528;2023-07-09T06:50:51;8.60;;;6.18;;
9848;SDS011;4963;51.444;6.528;2023-07-09T06:53:19;8.77;;;6.43;;
9848;SDS011;4963;51.444;6.528;2023-07-09T06:55:46;9.32;;;6.22;;
9848;SDS011;4963;51.444;6.528;2023-07-09T06:58:14;10.82;;;6.22;;
9848;SDS011;4963;51.444;6.528;2023-07-09T07:00:42;8.95;;;6.35;;
9848;SDS011;4963;51.444;6.528;2023-07-09T07:03:09;10.13;;;6.38;;
9848;SDS011;4963;51.444;6.528;2023-07-09T07:05:42;8.60;;;5.63;;
9848;SDS011;4963;51.444;6.528;2023-07-09T07:08:10;7.57;;;6.07;;
9848;SDS011;4963;51.444;6.528;2023-07-09T07:10:37;8.32;;;6.72;;
9848;SDS011;4963;51.444;6.528;2023-07-09T07:13:04;11.13;;;5.78;;
9848;SDS011;4963;51.444;6.528;2023-07-09T07:15:31;7.72;;;5.80;;
9848;SDS011;4963;51.444;6.528;2023-07-09T07:17:58;7.57;;;5.75;;
9848;SDS011;4963;51.444;6.528;2023-07-09T07:20:25;10.23;;;6.18;;
9848;SDS011;4963;51.444;6.528;2023-07-09T07:22:53;9.25;;;6.07;;
9848;SDS011;4963;51.444;6.528;2023-07-09T07:25:21;7.07;;;5.68;;
9848;SDS011;4963;51.444;6.528;2023-07-09T07:27:48;7.05;;;5.90;;
9848;SDS011;4963;51.444;6.528;2023-07-09T07:30:16;9.77;;;5.80;;
9848;SDS011;4963;51.444;6.528;2023-07-09T07:32:44;7.53;;;5.80;;
9848;SDS011;4963;51.444;6.528;2023-07-09T07:35:12;9.57;;;6.10;;
9848;SDS011;4963;51.444;6.528;2023-07-09T07:37:40;6.43;;;5.70;;
9848;SDS011;4963;51.444;6.528;2023-07-09T07:40:09;8.45;;;6.35;;
9848;SDS011;4963;51.444;6.528;2023-07-09T07:42:36;9.55;;;6.50;;
9848;SDS011;4963;51.444;6.528;2023-07-09T07:45:04;10.75;;;6.18;;
9848;SDS011;4963;51.444;6.528;2023-07-09T07:47:33;6.85;;;5.82;;
9848;SDS011;4963;51.444;6.528;2023-07-09T07:50:00;8.43;;;5.22;;
9848;SDS011;4963;51.444;6.528;2023-07-09T07:52:27;11.55;;;6.05;;
9848;SDS011;4963;51.444;6.528;2023-07-09T07:54:55;8.68;;;5.63;;
9848;SDS011;4963;51.444;6.528;2023-07-09T07:57:23;6.82;;;5.68;;
9848;SDS011;4963;51.444;6.528;2023-07-09T07:59:51;8.05;;;5.85;;
9848;SDS011;4963;51.444;6.528;2023-07-09T08:02:18;8.73;;;5.97;;
9848;SDS011;4963;51.444;6.528;2023-07-09T08:04:45;11.10;;;6.15;;
9848;SDS011;4963;51.444;6.528;2023-07-09T08:07:12;11.27;;;5.82;;
9848;SDS011;4963;51.444;6.528;2023-07-09T08:09:39;7.95;;;5.22;;
9848;SDS011;4963;51.444;6.528;2023-07-09T08:12:06;7.75;;;5.28;;
9848;SDS011;4963;51.444;6.528;2023-07-09T08:14:38;10.15;;;6.10;;
9848;SDS011;4963;51.444;6.528;2023-07-09T08:17:07;7.28;;;5.18;;
9848;SDS011;4963;51.444;6.528;2023-07-09T08:19:43;10.32;;;5.70;;
9848;SDS011;4963;51.444;6.528;2023-07-09T08:22:11;7.07;;;5.63;;
9848;SDS011;4963;51.444;6.528;2023-07-09T08:24:38;8.88;;;5.20;;
9848;SDS011;4963;51.444;6.528;2023-07-09T08:27:06;9.25;;;6.07;;
9848;SDS011;4963;51.444;6.528;2023-07-09T08:29:33;8.10;;;5.53;;
9848;SDS011;4963;51.444;6.528;2023-07-09T08:32:03;11.02;;;6.10;;
9848;SDS011;4963;51.444;6.528;2023-07-09T08:34:30;12.32;;;5.93;;
9848;SDS011;4963;51.444;6.528;2023-07-09T08:36:58;7.15;;;5.32;;
9848;SDS011;4963;51.444;6.528;2023-07-09T08:39:25;9.50;;;5.65;;
9848;SDS011;4963;51.444;6.528;2023-07-09T08:41:53;6.95;;;5.90;;
9848;SDS011;4963;51.444;6.528;2023-07-09T08:47:26;8.85;;;5.28;;
9848;SDS011;4963;51.444;6.528;2023-07-09T08:50:00;8.50;;;5.20;;
9848;SDS011;4963;51.444;6.528;2023-07-09T08:52:32;7.32;;;5.68;;
9848;SDS011;4963;51.444;6.528;2023-07-09T08:55:03;10.80;;;6.13;;
9848;SDS011;4963;51.444;6.528;2023-07-09T08:57:34;7.90;;;5.50;;
9848;SDS011;4963;51.444;6.528;2023-07-09T09:00:07;7.82;;;6.20;;
9848;SDS011;4963;51.444;6.528;2023-07-09T09:02:44;8.35;;;5.35;;
9848;SDS011;4963;51.444;6.528;2023-07-09T09:05:18;7.68;;;5.05;;
9848;SDS011;4963;51.444;6.528;2023-07-09T09:07:47;8.68;;;5.38;;
9848;SDS011;4963;51.444;6.528;2023-07-09T09:10:21;7.80;;;5.90;;
9848;SDS011;4963;51.444;6.528;2023-07-09T09:12:58;7.65;;;5.40;;
9848;SDS011;4963;51.444;6.528;2023-07-09T09:15:31;6.53;;;4.82;;
9848;SDS011;4963;51.444;6.528;2023-07-09T09:18:01;5.90;;;4.88;;
9848;SDS011;4963;51.444;6.528;2023-07-09T09:20:53;6.18;;;4.43;;
9848;SDS011;4963;51.444;6.528;2023-07-09T09:23:25;7.35;;;5.07;;
9848;SDS011;4963;51.444;6.528;2023-07-09T09:25:57;6.35;;;5.47;;
9848;SDS011;4963;51.444;6.528;2023-07-09T09:28:27;8.68;;;5.20;;
9848;SDS011;4963;51.444;6.528;2023-07-09T09:30:54;6.10;;;5.15;;
9848;SDS011;4963;51.444;6.528;2023-07-09T09:33:22;9.50;;;5.85;;
9848;SDS011;4963;51.444;6.528;2023-07-09T09:35:49;9.95;;;5.28;;
9848;SDS011;4963;51.444;6.528;2023-07-09T09:38:28;6.03;;;5.40;;
9848;SDS011;4963;51.444;6.528;2023-07-09T09:40:59;6.45;;;4.78;;
9848;SDS011;4963;51.444;6.528;2023-07-09T09:43:31;9.50;;;5.25;;
9848;SDS011;4963;51.444;6.528;2023-07-09T09:45:58;8.13;;;5.28;;
9848;SDS011;4963;51.444;6.528;2023-07-09T09:48:29;6.93;;;5.07;;
9848;SDS011;4963;51.444;6.528;2023-07-09T09:50:57;6.00;;;5.18;;
9848;SDS011;4963;51.444;6.528;2023-07-09T09:53:29;10.38;;;5.22;;
9848;SDS011;4963;51.444;6.528;2023-07-09T09:56:04;9.93;;;4.88;;
9848;SDS011;4963;51.444;6.528;2023-07-09T09:58:32;9.13;;;5.40;;
9848;SDS011;4963;51.444;6.528;2023-07-09T10:00:59;7.90;;;5.05;;
9848;SDS011;4963;51.444;6.528;2023-07-09T10:03:33;8.35;;;4.97;;
9848;SDS011;4963;51.444;6.528;2023-07-09T10:06:03;5.75;;;4.90;;
9848;SDS011;4963;51.444;6.528;2023-07-09T10:08:40;5.45;;;4.60;;
9848;SDS011;4963;51.444;6.528;2023-07-09T10:11:18;7.75;;;4.97;;
9848;SDS011;4963;51.444;6.528;2023-07-09T10:13:52;5.15;;;4.65;;
9848;SDS011;4963;51.444;6.528;2023-07-09T10:16:21;7.43;;;4.78;;
9848;SDS011;4963;51.444;6.528;2023-07-09T10:18:59;10.93;;;5.00;;
9848;SDS011;4963;51.444;6.528;2023-07-09T10:21:37;8.10;;;5.20;;
9848;SDS011;4963;51.444;6.528;2023-07-09T10:24:26;7.45;;;5.55;;
9848;SDS011;4963;51.444;6.528;2023-07-09T10:27:03;7.40;;;5.15;;
9848;SDS011;4963;51.444;6.528;2023-07-09T10:29:43;6.78;;;5.25;;
9848;SDS011;4963;51.444;6.528;2023-07-09T10:32:23;6.80;;;5.10;;
9848;SDS011;4963;51.444;6.528;2023-07-09T10:35:05;6.38;;;4.90;;
9848;SDS011;4963;51.444;6.528;2023-07-09T10:37:45;10.52;;;5.38;;
9848;SDS011;4963;51.444;6.528;2023-07-09T10:40:24;7.05;;;5.13;;
9848;SDS011;4963;51.444;6.528;2023-07-09T10:42:57;8.20;;;5.05;;
9848;SDS011;4963;51.444;6.528;2023-07-09T10:45:28;6.57;;;5.32;;
9848;SDS011;4963;51.444;6.528;2023-07-09T10:47:58;7.07;;;4.63;;
9848;SDS011;4963;51.444;6.528;2023-07-09T10:50:31;7.25;;;5.20;;
9848;SDS011;4963;51.444;6.528;2023-07-09T10:53:05;7.50;;;5.15;;
9848;SDS011;4963;51.444;6.528;2023-07-09T10:55:43;8.60;;;5.20;;
9848;SDS011;4963;51.444;6.528;2023-07-09T10:58:22;9.07;;;5.13;;
9848;SDS011;4963;51.444;6.528;2023-07-09T11:00:55;8.10;;;5.30;;
9848;SDS011;4963;51.444;6.528;2023-07-09T11:03:24;6.60;;;5.07;;
9848;SDS011;4963;51.444;6.528;2023-07-09T11:06:05;7.20;;;5.00;;
9848;SDS011;4963;51.444;6.528;2023-07-09T11:08:40;9.25;;;5.10;;
9848;SDS011;4963;51.444;6.528;2023-07-09T11:11:09;8.05;;;5.10;;
9848;SDS011;4963;51.444;6.528;2023-07-09T11:13:43;6.45;;;5.55;;
9848;SDS011;4963;51.444;6.528;2023-07-09T11:16:14;6.55;;;5.22;;
9848;SDS011;4963;51.444;6.528;2023-07-09T11:18:52;7.18;;;5.22;;
9848;SDS011;4963;51.444;6.528;2023-07-09T11:21:23;7.05;;;5.10;;
9848;SDS011;4963;51.444;6.528;2023-07-09T11:23:51;8.07;;;5.00;;
9848;SDS011;4963;51.444;6.528;2023-07-09T11:26:23;8.48;;;5.15;;
9848;SDS011;4963;51.444;6.528;2023-07-09T11:28:53;6.20;;;5.30;;
9848;SDS011;4963;51.444;6.528;2023-07-09T11:31:22;8.70;;;5.32;;
9848;SDS011;4963;51.444;6.528;2023-07-09T11:34:00;6.88;;;5.30;;
9848;SDS011;4963;51.444;6.528;2023-07-09T11:36:30;7.65;;;5.28;;
9848;SDS011;4963;51.444;6.528;2023-07-09T11:38:58;10.07;;;5.53;;
9848;SDS011;4963;51.444;6.528;2023-07-09T11:41:38;5.95;;;4.80;;
9848;SDS011;4963;51.444;6.528;2023-07-09T11:44:12;6.50;;;5.18;;
9848;SDS011;4963;51.444;6.528;2023-07-09T11:46:54;6.40;;;4.97;;
9848;SDS011;4963;51.444;6.528;2023-07-09T11:49:27;6.25;;;4.72;;
9848;SDS011;4963;51.444;6.528;2023-07-09T11:52:02;8.05;;;5.20;;
9848;SDS011;4963;51.444;6.528;2023-07-09T11:54:33;4.90;;;4.38;;
9848;SDS011;4963;51.444;6.528;2023-07-09T11:57:01;5.95;;;4.75;;
9848;SDS011;4963;51.444;6.528;2023-07-09T11:59:30;7.47;;;4.80;;
9848;SDS011;4963;51.444;6.528;2023-07-09T12:02:05;10.68;;;5.38;;
9848;SDS011;4963;51.444;6.528;2023-07-09T12:04:39;5.10;;;4.45;;
9848;SDS011;4963;51.444;6.528;2023-07-09T12:07:12;7.32;;;4.72;;
9848;SDS011;4963;51.444;6.528;2023-07-09T12:09:43;7.07;;;4.70;;
9848;SDS011;4963;51.444;6.528;2023-07-09T12:12:20;8.45;;;5.10;;
9848;SDS011;4963;51.444;6.528;2023-07-09T12:14:48;6.80;;;4.63;;
9848;SDS011;4963;51.444;6.528;2023-07-09T12:17:15;4.90;;;4.28;;
9848;SDS011;4963;51.444;6.528;2023-07-09T12:19:42;5.30;;;4.80;;
9848;SDS011;4963;51.444;6.528;2023-07-09T12:22:18;7.60;;;4.53;;
9848;SDS011;4963;51.444;6.528;2023-07-09T12:24:49;10.52;;;5.10;;
9848;SDS011;4963;51.444;6.528;2023-07-09T12:27:20;6.47;;;4.93;;
9848;SDS011;4963;51.444;6.528;2023-07-09T12:29:50;8.40;;;4.63;;
9848;SDS011;4963;51.444;6.528;2023-07-09T12:32:19;6.18;;;4.85;;
9848;SDS011;4963;51.444;6.528;2023-07-09T12:34:49;7.65;;;4.80;;
9848;SDS011;4963;51.444;6.528;2023-07-09T12:37:19;6.53;;;5.60;;
9848;SDS011;4963;51.444;6.528;2023-07-09T12:39:48;6.43;;;4.78;;
9848;SDS011;4963;51.444;6.528;2023-07-09T12:42:17;7.30;;;4.90;;
9848;SDS011;4963;51.444;6.528;2023-07-09T12:44:46;7.28;;;4.97;;
9848;SDS011;4963;51.444;6.528;2023-07-09T12:47:15;7.22;;;4.85;;
9848;SDS011;4963;51.444;6.528;2023-07-09T12:49:44;5.43;;;4.53;;
9848;SDS011;4963;51.444;6.528;2023-07-09T12:52:14;6.80;;;4.90;;
9848;SDS011;4963;51.444;6.528;2023-07-09T12:54:52;6.97;;;5.00;;
9848;SDS011;4963;51.444;6.528;2023-07-09T12:57:22;9.52;;;4.90;;
9848;SDS011;4963;51.444;6.528;2023-07-09T12:59:50;8.35;;;5.38;;
9848;SDS011;4963;51.444;6.528;2023-07-09T13:02:19;7.85;;;5.38;;
9848;SDS011;4963;51.444;6.528;2023-07-09T13:04:48;7.63;;;4.80;;
9848;SDS011;4963;51.444;6.528;2023-07-09T13:07:25;8.73;;;5.13;;
9848;SDS011;4963;51.444;6.528;2023-07-09T13:10:03;6.18;;;5.22;;
9848;SDS011;4963;51.444;6.528;2023-07-09T13:12:33;6.50;;;4.78;;
9848;SDS011;4963;51.444;6.528;2023-07-09T13:15:00;6.63;;;5.28;;
9848;SDS011;4963;51.444;6.528;2023-07-09T13:17:28;6.97;;;4.65;;
9848;SDS011;4963;51.444;6.528;2023-07-09T13:19:56;5.78;;;5.00;;
9848;SDS011;4963;51.444;6.528;2023-07-09T13:22:24;7.97;;;5.22;;
9848;SDS011;4963;51.444;6.528;2023-07-09T13:24:51;7.55;;;5.05;;
9848;SDS011;4963;51.444;6.528;2023-07-09T13:27:20;8.88;;;4.88;;
9848;SDS011;4963;51.444;6.528;2023-07-09T13:29:48;8.68;;;4.80;;
9848;SDS011;4963;51.444;6.528;2023-07-09T13:32:16;7.80;;;5.22;;
9848;SDS011;4963;51.444;6.528;2023-07-09T13:34:43;5.28;;;4.78;;
9848;SDS011;4963;51.444;6.528;2023-07-09T13:37:11;7.50;;;5.50;;
9848;SDS011;4963;51.444;6.528;2023-07-09T13:39:40;6.13;;;4.95;;
9848;SDS011;4963;51.444;6.528;2023-07-09T13:42:09;8.10;;;5.00;;
9848;SDS011;4963;51.444;6.528;2023-07-09T13:44:41;9.85;;;4.90;;
9848;SDS011;4963;51.444;6.528;2023-07-09T13:47:13;5.80;;;4.95;;
9848;SDS011;4963;51.444;6.528;2023-07-09T13:49:41;6.53;;;4.78;;
9848;SDS011;4963;51.444;6.528;2023-07-09T13:52:12;6.45;;;4.75;;
9848;SDS011;4963;51.444;6.528;2023-07-09T13:54:42;7.30;;;4.82;;
9848;SDS011;4963;51.444;6.528;2023-07-09T13:57:16;11.43;;;6.93;;
9848;SDS011;4963;51.444;6.528;2023-07-09T13:59:45;8.80;;;5.70;;
9848;SDS011;4963;51.444;6.528;2023-07-09T14:02:18;8.18;;;5.30;;
9848;SDS011;4963;51.444;6.528;2023-07-09T14:04:50;8.85;;;6.25;;
9848;SDS011;4963;51.444;6.528;2023-07-09T14:07:22;5.63;;;4.80;;
9848;SDS011;4963;51.444;6.528;2023-07-09T14:09:52;13.57;;;6.78;;
9848;SDS011;4963;51.444;6.528;2023-07-09T14:12:19;8.68;;;6.00;;
9848;SDS011;4963;51.444;6.528;2023-07-09T14:14:48;12.13;;;6.18;;
9848;SDS011;4963;51.444;6.528;2023-07-09T14:17:16;8.57;;;5.43;;
9848;SDS011;4963;51.444;6.528;2023-07-09T14:19:44;7.63;;;6.82;;
9848;SDS011;4963;51.444;6.528;2023-07-09T14:22:21;9.73;;;5.25;;
9848;SDS011;4963;51.444;6.528;2023-07-09T14:24:54;7.80;;;4.57;;
9848;SDS011;4963;51.444;6.528;2023-07-09T14:27:21;8.43;;;5.55;;
9848;SDS011;4963;51.444;6.528;2023-07-09T14:29:49;9.40;;;5.50;;
9848;SDS011;4963;51.444;6.528;2023-07-09T14:32:30;8.38;;;5.13;;
9848;SDS011;4963;51.444;6.528;2023-07-09T14:35:00;9.80;;;5.43;;
9848;SDS011;4963;51.444;6.528;2023-07-09T14:37:28;7.20;;;5.38;;
9848;SDS011;4963;51.444;6.528;2023-07-09T14:39:55;6.00;;;5.20;;
9848;SDS011;4963;51.444;6.528;2023-07-09T14:42:22;9.30;;;4.90;;
9848;SDS011;4963;51.444;6.528;2023-07-09T14:44:51;4.80;;;4.20;;
9848;SDS011;4963;51.444;6.528;2023-07-09T14:47:20;5.97;;;3.65;;
9848;SDS011;4963;51.444;6.528;2023-07-09T14:49:47;6.20;;;3.60;;
9848;SDS011;4963;51.444;6.528;2023-07-09T14:52:19;6.18;;;3.80;;
9848;SDS011;4963;51.444;6.528;2023-07-09T14:54:48;7.43;;;4.10;;
9848;SDS011;4963;51.444;6.528;2023-07-09T14:57:20;5.85;;;3.80;;
9848;SDS011;4963;51.444;6.528;2023-07-09T14:59:48;7.05;;;4.50;;
9848;SDS011;4963;51.444;6.528;2023-07-09T15:02:21;6.55;;;4.20;;
9848;SDS011;4963;51.444;6.528;2023-07-09T15:04:51;7.60;;;4.80;;
9848;SDS011;4963;51.444;6.528;2023-07-09T15:07:18;10.52;;;6.65;;
9848;SDS011;4963;51.444;6.528;2023-07-09T15:09:45;12.63;;;8.43;;
9848;SDS011;4963;51.444;6.528;2023-07-09T15:12:14;13.48;;;9.35;;
9848;SDS011;4963;51.444;6.528;2023-07-09T15:14:43;13.07;;;9.77;;
9848;SDS011;4963;51.444;6.528;2023-07-09T15:17:10;17.33;;;11.45;;
9848;SDS011;4963;51.444;6.528;2023-07-09T15:19:39;19.00;;;11.55;;
9848;SDS011;4963;51.444;6.528;2023-07-09T15:22:12;17.33;;;10.75;;
9848;SDS011;4963;51.444;6.528;2023-07-09T15:24:45;13.40;;;9.75;;
9848;SDS011;4963;51.444;6.528;2023-07-09T15:27:13;12.70;;;9.88;;
9848;SDS011;4963;51.444;6.528;2023-07-09T15:29:40;12.20;;;9.40;;